Time;durP1;ratioP1;P1;durP2;ratioP2;P2;SDS_P1;SDS_P2;PMS_P1;PMS_P2;Temp;Humidity;BMP_temperature;BMP_pressure;BME280_temperature;BME280_humidity;BME280_pressure;Samples;Min_cycle;Max_cycle;Signal;HPM_P1;HPM_P2
2022/01/09 00:00:34;;;;;;;133.50;54.05;;;;;;;-2.31;74.48;97120.84;1708531;82;21532;-56
2022/01/09 00:03:03;;;;;;;104.92;45.05;;;;;;;-2.34;74.35;97125.28;1712497;82;21463;-56
2022/01/09 00:05:30;;;;;;;101.53;40.95;;;;;;;-2.37;75.47;97116.44;1715953;81;21011;-56
2022/01/09 00:07:57;;;;;;;96.02;41.45;;;;;;;-2.35;75.69;97117.03;1737094;82;21021;-55
2022/01/09 00:10:26;;;;;;;80.00;36.23;;;;;;;-2.37;75.04;97110.62;1737165;82;21067;-56
2022/01/09 00:12:52;;;;;;;84.58;35.63;;;;;;;-2.48;75.88;97102.03;1737194;82;25822;-55
2022/01/09 00:15:20;;;;;;;77.60;35.70;;;;;;;-2.48;75.88;97102.03;1736826;82;37489;-55
2022/01/09 00:17:47;;;;;;;84.37;35.38;;;;;;;-2.50;76.12;97104.09;1737158;82;21017;-55
2022/01/09 00:20:14;;;;;;;84.87;40.17;;;;;;;-2.48;75.85;97094.59;1736984;82;21024;-55
2022/01/09 00:22:44;;;;;;;87.90;39.98;;;;;;;-2.54;76.32;97094.16;1730504;82;20989;-57
2022/01/09 00:25:11;;;;;;;85.85;40.70;;;;;;;-2.56;76.26;97089.08;1737223;82;20969;-56
2022/01/09 00:27:38;;;;;;;93.58;40.52;;;;;;;-2.48;76.32;97079.48;1737116;82;21009;-55
2022/01/09 00:30:07;;;;;;;88.10;41.48;;;;;;;-2.39;76.20;97081.36;1736030;82;20993;-56
2022/01/09 00:32:34;;;;;;;90.30;39.85;;;;;;;-2.30;76.57;97082.17;1728014;82;28792;-56
2022/01/09 00:35:01;;;;;;;83.62;36.80;;;;;;;-2.25;76.17;97078.03;1736837;82;21067;-56
2022/01/09 00:37:28;;;;;;;73.78;31.62;;;;;;;-2.27;76.85;97075.09;1737023;82;21414;-57
2022/01/09 00:39:55;;;;;;;73.65;33.13;;;;;;;-2.31;76.53;97082.37;1736750;82;20985;-56
2022/01/09 00:42:22;;;;;;;77.30;34.10;;;;;;;-2.38;76.64;97078.48;1737122;82;21587;-56
2022/01/09 00:44:51;;;;;;;74.62;31.73;;;;;;;-2.45;77.46;97075.08;1736962;82;21174;-56
2022/01/09 00:47:18;;;;;;;72.85;33.08;;;;;;;-2.45;76.41;97072.42;1726354;80;21612;-55
2022/01/09 00:49:45;;;;;;;86.15;35.40;;;;;;;-2.43;76.73;97073.53;1773037;80;21008;-56
2022/01/09 00:52:11;;;;;;;76.30;34.58;;;;;;;-2.37;77.16;97061.53;1739381;80;20989;-55
2022/01/09 00:54:38;;;;;;;71.97;31.80;;;;;;;-2.44;77.89;97061.30;1737209;82;21048;-56
2022/01/09 00:57:06;;;;;;;76.45;30.68;;;;;;;-2.51;77.39;97048.61;1737115;82;21405;-56
2022/01/09 00:59:33;;;;;;;85.92;31.60;;;;;;;-2.60;77.87;97052.06;1737035;82;21040;-56
2022/01/09 01:01:59;;;;;;;69.60;33.55;;;;;;;-2.68;78.25;97045.20;1737163;82;21280;-55
2022/01/09 01:04:27;;;;;;;74.92;33.75;;;;;;;-2.68;78.53;97038.57;1715830;82;21020;-56
2022/01/09 01:06:54;;;;;;;73.42;31.77;;;;;;;-2.61;77.61;97038.00;1699828;82;20984;-56
2022/01/09 01:09:21;;;;;;;75.08;33.18;;;;;;;-2.61;77.12;97036.67;1690271;84;21007;-56
2022/01/09 01:11:47;;;;;;;67.95;31.00;;;;;;;-2.59;77.57;97030.63;1706643;82;21081;-56
2022/01/09 01:14:14;;;;;;;73.05;33.63;;;;;;;-2.52;77.01;97031.08;1712461;83;21393;-56
2022/01/09 01:16:41;;;;;;;78.72;35.58;;;;;;;-2.58;77.58;97025.61;1716888;82;20983;-55
2022/01/09 01:19:10;;;;;;;92.55;39.40;;;;;;;-2.58;78.18;97028.78;1712428;83;21018;-56
2022/01/09 01:21:37;;;;;;;94.67;41.02;;;;;;;-2.57;78.05;97027.74;1729035;82;21016;-56
2022/01/09 01:24:04;;;;;;;94.50;40.20;;;;;;;-2.57;77.78;97025.90;1737111;82;21079;-56
2022/01/09 01:26:31;;;;;;;87.17;42.90;;;;;;;-2.75;79.10;97029.86;1730260;82;22069;-56
2022/01/09 01:28:58;;;;;;;97.40;44.05;;;;;;;-2.77;79.47;97021.84;1736981;82;21572;-56
2022/01/09 01:31:25;;;;;;;95.10;42.13;;;;;;;-2.78;79.09;97020.22;1736881;82;21473;-56
2022/01/09 01:33:52;;;;;;;83.27;40.05;;;;;;;-2.78;79.26;97008.29;1737071;82;20978;-56
2022/01/09 01:36:19;;;;;;;89.07;39.13;;;;;;;-2.76;79.17;97012.33;1736985;82;21017;-56
2022/01/09 01:38:46;;;;;;;86.08;38.28;;;;;;;-2.74;79.11;97006.29;1737057;82;21037;-56
2022/01/09 01:41:13;;;;;;;92.02;41.58;;;;;;;-2.70;78.71;96996.88;1729334;82;21047;-56
2022/01/09 01:43:40;;;;;;;88.82;40.33;;;;;;;-2.67;78.90;96989.80;1728590;80;20999;-56
2022/01/09 01:46:07;;;;;;;89.67;39.15;;;;;;;-2.64;78.84;96994.69;1721703;82;20972;-56
2022/01/09 01:48:34;;;;;;;81.50;37.03;;;;;;;-2.65;79.00;96985.59;1746536;80;21053;-56
2022/01/09 01:51:01;;;;;;;77.47;36.25;;;;;;;-2.60;78.83;96986.56;1746617;80;21550;-56
2022/01/09 01:53:28;;;;;;;85.55;38.73;;;;;;;-2.57;79.02;96986.11;1712656;82;21086;-56
2022/01/09 01:55:56;;;;;;;85.87;40.28;;;;;;;-2.67;79.51;96981.03;1712471;82;21006;-56
2022/01/09 01:58:24;;;;;;;93.07;39.63;;;;;;;-2.67;78.26;96973.08;1712974;82;21002;-56
2022/01/09 02:00:51;;;;;;;88.42;39.95;;;;;;;-2.67;78.26;96973.08;1712335;82;21519;-56
2022/01/09 02:03:18;;;;;;;89.65;40.10;;;;;;;-2.71;78.82;96966.09;1712764;82;21454;-56
2022/01/09 02:05:45;;;;;;;90.32;40.12;;;;;;;-2.72;79.23;96967.64;1712614;82;21069;-56
2022/01/09 02:08:12;;;;;;;84.55;41.08;;;;;;;-2.75;79.85;96970.20;1734545;82;21052;-56
2022/01/09 02:10:44;;;;;;;98.62;43.98;;;;;;;-2.70;79.27;96963.73;1737021;82;21079;-56
2022/01/09 02:13:11;;;;;;;82.60;40.17;;;;;;;-2.81;80.11;96963.66;1707433;84;21007;-55
2022/01/09 02:15:45;;;;;;;98.27;45.65;;;;;;;-3.01;80.81;96951.40;1694308;84;21429;-56
2022/01/09 02:18:18;;;;;;;87.92;42.88;;;;;;;-2.94;80.96;96953.47;1693018;82;21452;-56
2022/01/09 02:20:45;;;;;;;79.42;40.60;;;;;;;-2.86;80.50;96943.91;1693441;82;21071;-56
2022/01/09 02:23:13;;;;;;;89.65;42.10;;;;;;;-2.86;80.59;96940.45;1734141;82;21477;-56
2022/01/09 02:25:40;;;;;;;93.85;41.13;;;;;;;-2.81;80.47;96943.26;1736936;82;21469;-56
2022/01/09 02:28:07;;;;;;;92.35;41.02;;;;;;;-2.74;80.07;96939.19;1737300;82;21052;-56
2022/01/09 02:30:35;;;;;;;87.57;39.95;;;;;;;-2.64;79.29;96931.03;1735298;82;21012;-57
2022/01/09 02:33:05;;;;;;;87.97;38.63;;;;;;;-2.75;79.69;96948.98;1712723;82;21312;-56
2022/01/09 02:35:33;;;;;;;85.28;40.30;;;;;;;-2.78;80.19;96949.44;1713543;82;21066;-56
2022/01/09 02:38:00;;;;;;;93.25;41.23;;;;;;;-2.73;79.48;96952.77;1717565;82;21260;-56
2022/01/09 02:40:27;;;;;;;84.72;40.75;;;;;;;-2.90;80.72;96941.94;1712488;82;21703;-56
2022/01/09 02:42:54;;;;;;;96.25;44.03;;;;;;;-2.90;81.02;96930.00;1710457;82;21008;-56
2022/01/09 02:45:23;;;;;;;93.82;43.63;;;;;;;-2.80;79.93;96937.44;1704791;82;20969;-56
2022/01/09 02:47:52;;;;;;;89.60;43.45;;;;;;;-2.75;79.37;96934.91;1727562;80;21025;-56
2022/01/09 02:52:56;;;;;;;80.53;36.38;;;;;;;-2.66;78.99;96925.62;1712862;82;21034;-55
2022/01/09 02:55:22;;;;;;;71.45;33.30;;;;;;;-2.68;79.78;96918.41;1712322;82;20982;-56
2022/01/09 02:57:51;;;;;;;79.87;35.83;;;;;;;-2.62;79.43;96915.69;1730145;82;21021;-56
2022/01/09 03:00:35;;;;;;;74.97;32.08;;;;;;;-2.62;78.66;96918.34;1736918;82;21461;-56
2022/01/09 03:03:01;;;;;;;70.55;35.05;;;;;;;-2.66;79.43;96917.67;1737185;82;21064;-56
2022/01/09 03:05:29;;;;;;;77.80;39.70;;;;;;;-2.64;78.58;96920.94;1736801;82;21919;-56
2022/01/09 03:07:56;;;;;;;76.25;36.50;;;;;;;-2.65;78.61;96911.33;1712654;82;22122;-56
2022/01/09 03:10:23;;;;;;;66.10;30.52;;;;;;;-2.66;80.14;96909.72;1712355;82;20995;-56
2022/01/09 03:12:51;;;;;;;64.25;30.17;;;;;;;-2.62;79.16;96901.63;1712553;82;21058;-56
2022/01/09 03:15:18;;;;;;;75.57;32.93;;;;;;;-2.66;78.94;96897.27;1712647;82;21050;-56
2022/01/09 03:17:45;;;;;;;68.28;31.77;;;;;;;-2.68;79.43;96897.20;1712521;82;21436;-56
2022/01/09 03:20:16;;;;;;;70.57;32.75;;;;;;;-2.71;79.16;96897.14;1728809;81;21031;-56
2022/01/09 03:22:44;;;;;;;78.40;33.23;;;;;;;-2.73;80.23;96894.42;1712379;82;21003;-55
2022/01/09 03:25:11;;;;;;;57.93;29.98;;;;;;;-2.72;79.73;96888.09;1714466;82;20991;-56
2022/01/09 03:27:39;;;;;;;62.13;29.60;;;;;;;-2.67;79.33;96887.69;1737142;82;21000;-56
2022/01/09 03:30:08;;;;;;;57.87;28.13;;;;;;;-2.70;79.49;96869.58;1737242;82;22091;-56
2022/01/09 03:32:36;;;;;;;64.15;31.17;;;;;;;-2.73;78.79;96865.25;1737285;82;21469;-55
2022/01/09 03:35:09;;;;;;;65.78;29.30;;;;;;;-2.89;79.34;96866.14;1737110;82;21015;-56
2022/01/09 03:37:37;;;;;;;58.50;29.42;;;;;;;-2.92;78.58;96865.77;1737279;82;21067;-56
2022/01/09 03:40:05;;;;;;;71.42;29.92;;;;;;;-2.90;78.65;96863.72;1737033;82;21536;-56
2022/01/09 03:42:32;;;;;;;72.42;32.53;;;;;;;-2.87;78.41;96873.36;1722791;82;22032;-56
2022/01/09 03:44:59;;;;;;;71.00;36.35;;;;;;;-2.96;78.24;96866.73;1712514;82;20990;-56
2022/01/09 03:47:27;;;;;;;61.48;30.43;;;;;;;-3.01;78.52;96863.12;1717672;80;20975;-56
2022/01/09 03:49:53;;;;;;;62.70;29.75;;;;;;;-3.10;78.98;96861.28;1706859;84;21017;-56
2022/01/09 03:52:26;;;;;;;65.78;28.52;;;;;;;-3.15;78.53;96861.15;1717834;80;21067;-56
2022/01/09 03:54:49;;;;;;;52.48;27.15;;;;;;;-3.26;79.42;96856.05;1712239;83;25131;-56
2022/01/09 03:57:16;;;;;;;56.77;25.75;;;;;;;-3.26;78.94;96861.86;1731236;82;21468;-56
2022/01/09 03:59:43;;;;;;;63.85;27.35;;;;;;;-3.30;78.44;96860.18;1737048;82;21068;-56
2022/01/09 04:02:10;;;;;;;70.85;30.10;;;;;;;-3.37;78.99;96854.66;1719464;82;21062;-55
2022/01/09 04:04:37;;;;;;;54.03;27.75;;;;;;;-3.46;79.60;96852.28;1712569;83;21024;-56
2022/01/09 04:07:04;;;;;;;55.43;25.85;;;;;;;-3.47;79.77;96853.31;1713013;82;21290;-56
2022/01/09 04:09:41;;;;;;;59.27;27.10;;;;;;;-3.50;79.68;96851.12;1712321;82;21046;-56
2022/01/09 04:12:15;;;;;;;62.23;26.50;;;;;;;-3.56;79.79;96851.17;1712567;82;20987;-55
2022/01/09 04:14:38;;;;;;;64.32;27.02;;;;;;;-3.58;79.32;96850.08;1702038;83;21062;-56
2022/01/09 04:17:07;;;;;;;51.92;24.45;;;;;;;-3.59;78.87;96852.91;1719104;82;21074;-56
2022/01/09 04:19:33;;;;;;;49.08;22.93;;;;;;;-3.72;79.48;96850.70;1725616;80;21352;-56
2022/01/09 04:22:00;;;;;;;49.30;21.97;;;;;;;-3.80;79.61;96853.62;1724170;82;21016;-56
2022/01/09 04:24:27;;;;;;;49.18;24.77;;;;;;;-3.92;79.87;96849.27;1736839;82;21000;-55
2022/01/09 04:26:54;;;;;;;49.27;25.27;;;;;;;-4.04;80.77;96847.81;1737123;82;20965;-56
2022/01/09 04:29:21;;;;;;;104.70;42.80;;;;;;;-4.05;79.04;96841.70;1737003;82;21024;-56
2022/01/09 04:31:48;;;;;;;71.75;33.13;;;;;;;-4.05;79.00;96843.03;1736894;82;21393;-56
2022/01/09 04:34:15;;;;;;;57.03;29.82;;;;;;;-4.08;79.61;96838.70;1737230;82;21008;-56
2022/01/09 04:36:42;;;;;;;63.58;33.42;;;;;;;-4.15;81.15;96841.38;1719438;82;21419;-56
2022/01/09 04:39:09;;;;;;;89.20;38.28;;;;;;;-4.15;81.69;96840.58;1712490;83;21066;-56
2022/01/09 04:41:36;;;;;;;119.82;43.75;;;;;;;-4.16;81.22;96844.25;1712370;82;20995;-56
2022/01/09 04:44:03;;;;;;;77.10;29.95;;;;;;;-4.21;80.98;96850.69;1712810;82;21255;-55
2022/01/09 04:46:41;;;;;;;71.92;30.57;;;;;;;-4.22;80.58;96857.81;1716280;82;21422;-56
2022/01/09 04:48:59;;;;;;;51.90;24.07;;;;;;;-4.26;80.38;96855.31;1762208;80;20990;-56
2022/01/09 04:51:26;;;;;;;63.10;27.87;;;;;;;-4.28;79.30;96858.66;1744316;80;21040;-56
2022/01/09 04:53:53;;;;;;;67.70;32.08;;;;;;;-4.38;80.17;96851.71;1737147;82;21079;-55
2022/01/09 04:56:20;;;;;;;55.95;28.20;;;;;;;-4.48;82.29;96849.54;1708896;82;21405;-56
2022/01/09 04:58:47;;;;;;;59.30;29.02;;;;;;;-4.45;81.45;96851.75;1712761;83;20959;-56
2022/01/09 05:01:14;;;;;;;64.17;29.32;;;;;;;-4.45;81.20;96856.23;1724934;82;21424;-55
2022/01/09 05:03:40;;;;;;;57.55;28.90;;;;;;;-4.42;81.41;96856.62;1737143;82;21414;-56
2022/01/09 05:06:07;;;;;;;67.27;29.90;;;;;;;-4.38;80.36;96862.30;1736339;82;21008;-56
2022/01/09 05:08:34;;;;;;;65.92;28.95;;;;;;;-4.50;82.52;96870.62;1737329;82;21391;-56
2022/01/09 05:11:01;;;;;;;80.28;37.98;;;;;;;-4.43;80.80;96874.84;1736888;82;21020;-56
2022/01/09 05:13:28;;;;;;;82.60;43.25;;;;;;;-4.35;80.38;96877.75;1713320;82;21050;-56
2022/01/09 05:15:55;;;;;;;79.77;38.30;;;;;;;-4.30;80.97;96880.04;1721543;82;21477;-56
2022/01/09 05:18:22;;;;;;;74.10;36.63;;;;;;;-4.27;80.65;96884.11;1737475;82;21529;-56
2022/01/09 05:20:49;;;;;;;77.40;36.10;;;;;;;-4.35;81.05;96881.20;1733438;82;21038;-56
2022/01/09 05:23:16;;;;;;;74.03;36.35;;;;;;;-4.38;81.54;96888.23;1712769;82;20956;-55
2022/01/09 05:25:43;;;;;;;78.72;35.60;;;;;;;-4.36;82.44;96878.27;1712539;82;21061;-56
2022/01/09 05:28:10;;;;;;;64.37;31.25;;;;;;;-4.39;82.24;96873.90;1712897;82;20999;-56
2022/01/09 05:30:36;;;;;;;65.03;33.67;;;;;;;-4.38;81.26;96875.52;1712428;82;21057;-56
2022/01/09 05:33:04;;;;;;;77.25;32.78;;;;;;;-4.39;80.91;96872.58;1712856;82;21409;-56
2022/01/09 05:35:31;;;;;;;93.12;42.55;;;;;;;-4.31;81.05;96867.03;1712515;82;21006;-56
2022/01/09 05:37:58;;;;;;;77.50;38.95;;;;;;;-4.20;80.92;96876.92;1731864;82;21020;-55
2022/01/09 05:40:24;;;;;;;79.37;36.35;;;;;;;-4.13;81.02;96874.23;1737323;82;21016;-55
2022/01/09 05:42:51;;;;;;;75.20;36.35;;;;;;;-4.16;81.30;96866.23;1737374;82;21496;-56
2022/01/09 05:45:19;;;;;;;83.62;35.30;;;;;;;-4.18;81.58;96876.22;1737165;82;21021;-56
2022/01/09 05:47:46;;;;;;;127.25;48.80;;;;;;;-4.20;80.18;96870.82;1730576;82;21016;-56
2022/01/09 05:50:13;;;;;;;125.40;47.25;;;;;;;-4.35;81.60;96869.30;1706153;82;21008;-56
2022/01/09 05:52:40;;;;;;;76.45;33.08;;;;;;;-4.33;80.37;96863.80;1711202;82;21003;-56
2022/01/09 05:55:08;;;;;;;73.60;30.40;;;;;;;-4.35;81.24;96873.78;1709742;82;21071;-56
2022/01/09 05:57:35;;;;;;;71.10;32.15;;;;;;;-4.35;80.96;96875.92;1710108;82;21653;-55
2022/01/09 06:00:04;;;;;;;81.37;36.45;;;;;;;-4.38;79.93;96878.16;1713178;82;21560;-56
2022/01/09 06:02:31;;;;;;;80.03;34.53;;;;;;;-4.44;80.92;96886.45;1737355;82;21520;-56
2022/01/09 06:04:58;;;;;;;73.40;32.00;;;;;;;-4.50;81.99;96881.19;1737272;82;20997;-56
2022/01/09 06:07:25;;;;;;;67.15;30.88;;;;;;;-4.55;82.38;96889.75;1730787;82;21051;-56
2022/01/09 06:09:51;;;;;;;59.50;25.75;;;;;;;-4.58;81.79;96886.21;1737392;82;21250;-56
2022/01/09 06:12:18;;;;;;;63.50;28.83;;;;;;;-4.71;82.06;96880.97;1737020;82;21630;-56
2022/01/09 06:14:45;;;;;;;53.85;25.12;;;;;;;-4.73;81.77;96883.03;1737179;82;21071;-56
2022/01/09 06:17:12;;;;;;;53.78;25.72;;;;;;;-4.75;81.29;96889.05;1736964;82;21008;-55
2022/01/09 06:19:39;;;;;;;54.30;25.27;;;;;;;-4.78;82.23;96886.31;1737338;82;21079;-56
2022/01/09 06:22:06;;;;;;;53.48;26.10;;;;;;;-4.77;81.49;96887.94;1727047;82;22076;-56
2022/01/09 06:24:33;;;;;;;54.03;24.55;;;;;;;-4.78;82.97;96884.99;1712777;83;21015;-56
2022/01/09 06:27:00;;;;;;;52.27;26.23;;;;;;;-4.77;83.26;96879.20;1721398;82;21024;-56
2022/01/09 06:29:26;;;;;;;52.78;25.65;;;;;;;-4.73;82.42;96876.42;1737321;82;20989;-56
2022/01/09 06:31:53;;;;;;;53.95;23.60;;;;;;;-4.78;82.57;96877.58;1737117;82;21000;-56
2022/01/09 06:34:20;;;;;;;47.30;24.20;;;;;;;-4.82;82.50;96890.38;1713637;82;21348;-55
2022/01/09 06:36:48;;;;;;;48.33;24.92;;;;;;;-4.89;82.73;96890.41;1711093;82;21047;-56
2022/01/09 06:39:14;;;;;;;99.17;44.67;;;;;;;-4.97;82.91;96886.67;1712865;83;21018;-55
2022/01/09 06:41:41;;;;;;;67.85;31.05;;;;;;;-5.05;82.73;96890.05;1712435;82;21014;-56
2022/01/09 06:44:08;;;;;;;114.40;52.65;;;;;;;-5.01;81.86;96897.38;1712890;83;21019;-56
2022/01/09 06:46:35;;;;;;;68.55;33.53;;;;;;;-5.03;82.05;96898.09;1723874;82;22116;-55
2022/01/09 06:49:02;;;;;;;58.17;28.50;;;;;;;-5.01;82.59;96903.16;1714921;82;20957;-55
2022/01/09 06:51:30;;;;;;;50.85;27.13;;;;;;;-5.03;82.53;96899.41;1700066;82;21440;-56
2022/01/09 06:53:57;;;;;;;61.95;29.50;;;;;;;-5.04;81.80;96896.48;1712624;83;20999;-56
2022/01/09 06:56:23;;;;;;;57.00;27.65;;;;;;;-5.12;81.00;96893.55;1721904;82;21025;-56
2022/01/09 06:58:50;;;;;;;63.00;25.27;;;;;;;-5.21;80.68;96893.48;1737356;82;21028;-56
2022/01/09 07:01:17;;;;;;;62.05;27.52;;;;;;;-5.26;80.66;96902.52;1736711;82;21440;-55
2022/01/09 07:03:44;;;;;;;59.80;30.72;;;;;;;-5.29;80.65;96898.98;1737330;82;21477;-56
2022/01/09 07:06:11;;;;;;;70.35;35.80;;;;;;;-5.26;80.98;96899.87;1732276;82;20969;-56
2022/01/09 07:08:38;;;;;;;69.42;33.40;;;;;;;-5.21;82.70;96896.12;1737304;82;21009;-56
2022/01/09 07:11:05;;;;;;;64.20;30.92;;;;;;;-5.17;82.31;96899.95;1725705;82;21368;-56
2022/01/09 07:13:33;;;;;;;77.10;39.63;;;;;;;-5.23;82.34;96906.05;1712820;82;21007;-56
2022/01/09 07:15:59;;;;;;;119.60;53.38;;;;;;;-5.28;82.41;96897.95;1718171;82;21330;-56
2022/01/09 07:18:26;;;;;;;84.80;41.45;;;;;;;-5.33;82.53;96901.71;1737355;82;21413;-55
2022/01/09 07:20:53;;;;;;;206.45;77.53;;;;;;;-5.34;82.33;96894.00;1732206;82;22065;-56
2022/01/09 07:23:20;;;;;;;138.85;65.92;;;;;;;-5.37;82.79;96897.88;1735384;82;21302;-56
2022/01/09 07:25:47;;;;;;;108.92;51.53;;;;;;;-5.36;82.20;96892.09;1728772;82;21086;-56
2022/01/09 07:28:14;;;;;;;77.53;36.45;;;;;;;-5.34;82.01;96894.00;1712684;82;21006;-55
2022/01/09 07:30:41;;;;;;;61.45;32.58;;;;;;;-5.34;81.74;96892.69;1712319;82;21006;-56
2022/01/09 07:33:08;;;;;;;64.37;33.67;;;;;;;-5.34;82.44;96895.33;1724212;82;22122;-56
2022/01/09 07:35:35;;;;;;;79.87;38.10;;;;;;;-5.31;81.83;96893.58;1714773;82;21371;-56
2022/01/09 07:38:02;;;;;;;73.33;40.25;;;;;;;-5.27;82.50;96893.48;1737186;82;21029;-55
2022/01/09 07:40:29;;;;;;;86.17;42.38;;;;;;;-5.25;82.47;96884.33;1736995;82;21012;-56
2022/01/09 07:42:56;;;;;;;105.50;57.85;;;;;;;-5.17;82.39;96888.58;1737101;82;21017;-56
2022/01/09 07:45:25;;;;;;;73.87;39.30;;;;;;;-5.21;82.34;96886.88;1737064;82;21000;-56
2022/01/09 07:47:52;;;;;;;90.28;48.20;;;;;;;-5.25;82.35;96887.48;1729561;82;22034;-56
2022/01/09 07:50:19;;;;;;;126.13;63.23;;;;;;;-5.30;82.53;96878.03;1708125;82;21478;-55
2022/01/09 07:52:46;;;;;;;97.55;52.27;;;;;;;-5.24;82.20;96877.21;1736146;82;21032;-56
2022/01/09 07:55:14;;;;;;;89.07;44.33;;;;;;;-5.23;81.73;96874.88;1737070;82;21056;-56
2022/01/09 07:57:41;;;;;;;71.97;35.60;;;;;;;-5.19;82.35;96875.58;1730490;82;21075;-56
2022/01/09 08:00:10;;;;;;;65.92;35.40;;;;;;;-5.13;82.26;96868.64;1737076;82;21407;-56
2022/01/09 08:02:37;;;;;;;;;;;;;;;-5.03;82.58;96868.22;1724399;82;21451;-56
2022/01/09 08:05:05;;;;;;;88.37;42.43;;;;;;;-5.01;82.31;96867.50;1712351;82;20159;-55
2022/01/09 08:07:32;;;;;;;116.42;58.58;;;;;;;-4.95;82.51;96871.44;1712285;82;21499;-56
2022/01/09 08:09:59;;;;;;;131.00;56.73;;;;;;;-4.88;82.54;96870.06;1712557;83;21050;-56
2022/01/09 08:12:28;;;;;;;176.20;73.80;;;;;;;-4.79;82.50;96872.77;1722346;80;20997;-55
2022/01/09 08:14:54;;;;;;;229.70;82.55;;;;;;;-4.79;82.71;96870.13;1737092;82;20996;-56
2022/01/09 08:17:21;;;;;;;165.10;62.88;;;;;;;-4.74;82.15;96872.16;1722536;82;22178;-55
2022/01/09 08:19:48;;;;;;;126.53;49.23;;;;;;;-4.70;82.21;96870.70;1707685;83;21115;-55
2022/01/09 08:22:15;;;;;;;140.62;58.48;;;;;;;-4.58;82.35;96866.38;1726386;82;21067;-56
2022/01/09 08:24:42;;;;;;;182.20;64.17;;;;;;;-4.55;82.63;96860.14;1737298;82;21398;-59
2022/01/09 08:27:09;;;;;;;135.25;54.75;;;;;;;-4.48;81.87;96866.73;1736880;82;20965;-56
2022/01/09 08:29:37;;;;;;;91.78;41.55;;;;;;;-4.45;82.34;96861.52;1737185;82;21575;-56
2022/01/09 08:32:06;;;;;;;217.28;73.80;;;;;;;-4.36;82.28;96857.11;1727074;82;21050;-56
2022/01/09 08:34:34;;;;;;;93.50;41.30;;;;;;;-4.24;82.56;96859.06;1712596;83;20972;-56
2022/01/09 08:37:01;;;;;;;93.22;43.38;;;;;;;-4.15;82.30;96853.80;1712260;82;21504;-55
2022/01/09 08:39:28;;;;;;;104.67;48.25;;;;;;;-4.01;82.22;96850.05;1712657;83;21059;-55
2022/01/09 08:41:55;;;;;;;180.65;75.32;;;;;;;-3.96;82.12;96852.83;1725631;82;21020;-56
2022/01/09 08:44:22;;;;;;;136.00;60.12;;;;;;;-3.88;82.18;96851.24;1737174;82;21016;-56
2022/01/09 08:46:49;;;;;;;102.87;49.42;;;;;;;-3.74;82.13;96854.08;1718083;82;21023;-55
2022/01/09 08:49:16;;;;;;;87.88;43.02;;;;;;;-3.65;81.82;96848.00;1763814;80;21315;-56
2022/01/09 08:51:42;;;;;;;91.92;43.58;;;;;;;-3.56;81.50;96844.03;1733950;80;21017;-56
2022/01/09 08:54:09;;;;;;;103.07;44.65;;;;;;;-3.50;81.14;96836.55;1712545;83;21420;-56
2022/01/09 08:56:38;;;;;;;73.35;31.60;;;;;;;-3.42;80.93;96839.40;1728830;82;21604;-55
2022/01/09 08:59:05;;;;;;;87.57;41.55;;;;;;;-3.30;80.87;96831.55;1737332;82;21056;-55
2022/01/09 09:01:32;;;;;;;91.80;43.28;;;;;;;-3.20;81.12;96827.86;1721037;82;21341;-56
2022/01/09 09:03:59;;;;;;;96.65;42.05;;;;;;;-3.04;81.06;96823.30;1712784;83;21467;-56
2022/01/09 09:06:26;;;;;;;92.47;39.45;;;;;;;-2.90;80.76;96825.28;1722173;82;22389;-56
2022/01/09 09:08:53;;;;;;;146.50;65.03;;;;;;;-2.75;80.44;96824.34;1737164;82;21497;-55
2022/01/09 09:11:20;;;;;;;78.87;38.80;;;;;;;-2.70;79.71;96827.16;1736779;82;21028;-56
2022/01/09 09:13:46;;;;;;;95.12;42.25;;;;;;;-2.69;79.73;96823.98;1737312;82;21313;-55
2022/01/09 09:16:15;;;;;;;107.10;45.52;;;;;;;-2.66;79.62;96817.70;1728662;82;21055;-56
2022/01/09 09:18:47;;;;;;;93.25;41.10;;;;;;;-2.59;79.61;96818.42;1707796;84;20985;-56
2022/01/09 09:21:14;;;;;;;89.45;39.27;;;;;;;-2.53;79.69;96819.38;1717887;82;22073;-56
2022/01/09 09:23:41;;;;;;;96.10;41.55;;;;;;;-2.48;79.86;96814.70;1737232;82;20973;-56
2022/01/09 09:26:09;;;;;;;86.92;38.23;;;;;;;-2.38;79.77;96812.34;1732101;82;21368;-56
2022/01/09 09:28:37;;;;;;;84.07;36.03;;;;;;;-2.26;79.96;96811.83;1737025;82;21452;-57
2022/01/09 09:31:04;;;;;;;131.47;51.92;;;;;;;-2.13;79.97;96810.31;1730495;82;21070;-57
2022/01/09 09:33:31;;;;;;;82.50;38.40;;;;;;;-2.02;79.99;96812.17;1712779;83;21006;-57
2022/01/09 09:36:00;;;;;;;84.90;34.25;;;;;;;-1.90;79.60;96812.69;1722401;82;21000;-57
2022/01/09 09:38:27;;;;;;;63.90;33.33;;;;;;;-1.77;79.82;96806.65;1737232;82;20996;-57
2022/01/09 09:40:54;;;;;;;82.97;38.95;;;;;;;-1.64;80.07;96800.80;1736936;82;21016;-57
2022/01/09 09:43:21;;;;;;;91.22;42.40;;;;;;;-1.42;80.04;96807.97;1737183;82;21067;-57
2022/01/09 09:45:48;;;;;;;85.72;39.60;;;;;;;-1.28;79.35;96807.20;1736854;82;21449;-56
2022/01/09 09:48:15;;;;;;;79.92;37.15;;;;;;;-1.15;79.67;96800.29;1724656;82;21548;-56
2022/01/09 09:50:42;;;;;;;85.62;36.70;;;;;;;-1.02;79.30;96799.76;1704771;82;21438;-56
2022/01/09 09:53:09;;;;;;;68.57;33.80;;;;;;;-0.89;79.42;96795.48;1732983;82;21391;-57
2022/01/09 09:55:36;;;;;;;66.15;33.63;;;;;;;-0.75;78.87;96798.16;1713215;82;21003;-56
2022/01/09 09:58:03;;;;;;;55.85;28.32;;;;;;;-0.62;78.87;96799.71;1732079;82;21000;-56
2022/01/09 10:00:30;;;;;;;53.10;24.67;;;;;;;-0.50;78.54;96791.70;1731691;82;20986;-56
2022/01/09 10:02:59;;;;;;;46.80;24.27;;;;;;;-0.40;77.51;96795.87;1712565;82;21786;-56
2022/01/09 10:05:36;;;;;;;44.83;22.32;;;;;;;-0.36;76.70;96791.14;1712526;82;20987;-56
2022/01/09 10:08:07;;;;;;;41.85;21.17;;;;;;;-0.25;77.76;96785.48;1711566;82;21014;-58
2022/01/09 10:10:36;;;;;;;51.48;25.27;;;;;;;-0.07;78.16;96787.91;1711931;82;21471;-57
2022/01/09 10:13:15;;;;;;;43.17;21.07;;;;;;;0.09;77.24;96782.31;1712632;82;21034;-56
2022/01/09 10:15:52;;;;;;;51.25;26.80;;;;;;;0.24;76.15;96776.39;1714961;82;21725;-57
2022/01/09 10:18:41;;;;;;;46.92;22.42;;;;;;;0.28;74.20;96785.00;1737176;82;21016;-56
2022/01/09 10:21:12;;;;;;;55.83;27.60;;;;;;;0.39;75.67;96787.28;1737105;82;21079;-57
2022/01/09 10:24:06;;;;;;;72.55;32.30;;;;;;;0.49;75.91;96788.75;1735830;82;21043;-57
2022/01/09 10:26:37;;;;;;;67.92;29.60;;;;;;;0.61;76.18;96786.00;1732565;82;21455;-57
2022/01/09 10:29:06;;;;;;;55.80;23.25;;;;;;;0.71;75.79;96786.13;1712168;83;23080;-57
2022/01/09 10:31:48;;;;;;;52.17;23.52;;;;;;;0.82;76.00;96784.39;1723608;82;26833;-57
2022/01/09 10:34:18;;;;;;;48.45;22.90;;;;;;;0.92;75.55;96786.38;1737367;82;22079;-57
2022/01/09 10:36:51;;;;;;;48.17;22.17;;;;;;;0.96;74.76;96780.31;1723704;82;21002;-58
2022/01/09 10:39:36;;;;;;;45.67;20.85;;;;;;;0.98;74.96;96778.73;1712719;83;21007;-56
2022/01/09 10:42:02;;;;;;;53.50;25.25;;;;;;;1.00;73.96;96782.75;1732106;82;21467;-57
2022/01/09 10:44:33;;;;;;;68.17;26.23;;;;;;;1.09;74.81;96782.59;1737264;82;21001;-59
2022/01/09 10:47:06;;;;;;;56.50;28.05;;;;;;;1.16;73.61;96782.41;1728064;82;20990;-57
2022/01/09 10:49:51;;;;;;;56.77;28.73;;;;;;;1.23;74.39;96777.69;1771249;80;21009;-57
2022/01/09 10:52:26;;;;;;;49.75;25.97;;;;;;;1.33;73.98;96775.13;1737376;80;21079;-57
2022/01/09 10:54:56;;;;;;;53.48;23.85;;;;;;;1.39;73.72;96777.33;1725212;82;21576;-56
2022/01/09 10:57:27;;;;;;;50.92;23.27;;;;;;;1.44;73.72;96768.02;1727893;82;21000;-57
2022/01/09 10:59:54;;;;;;;48.17;21.52;;;;;;;1.46;72.59;96771.80;1737215;82;22112;-57
2022/01/09 11:02:21;;;;;;;50.15;24.55;;;;;;;1.44;72.36;96755.20;1664160;84;21103;-57
2022/01/09 11:04:48;;;;;;;60.65;27.42;;;;;;;1.46;72.34;96763.27;1707811;83;21361;-57
2022/01/09 11:07:16;;;;;;;91.47;33.70;;;;;;;1.48;72.10;96758.47;1723735;82;21010;-57
2022/01/09 11:09:50;;;;;;;59.05;28.95;;;;;;;1.51;72.37;96759.29;1712742;83;21022;-57
2022/01/09 11:12:16;;;;;;;65.60;36.55;;;;;;;1.55;72.45;96756.41;1722772;82;21035;-56
2022/01/09 11:14:42;;;;;;;39.48;19.65;;;;;;;1.66;72.71;96759.44;1712593;83;20999;-56
2022/01/09 11:17:09;;;;;;;34.63;19.05;;;;;;;1.74;72.18;96747.49;1702843;83;21005;-57
2022/01/09 11:19:37;;;;;;;35.83;17.32;;;;;;;1.82;71.90;96745.70;1710327;83;22073;-57
2022/01/09 11:22:06;;;;;;;101.75;42.05;;;;;;;1.89;68.50;96751.63;1721786;82;21469;-57